Bow, Kentucky
Current Conditions -  °F | °C
As of 12:56 AM on Saturday 29 Nov 2014 (Local Time) from KEKQ Reporting Station
Clear Clear  
Wind Chill: 35°   Ceiling: Unl
Heat Index: 39°   Visibility: 10mi
Dew Point: 21°   Wind: 6mph
Humidity: 49%   Direction: 180°S
Pressure: 30.14"   Gusts: NA
Location:  36.7332°N, 85.3312°W
Report Text: KEKQ 290656Z AUTO 18005KT 10SM CLR 04/M06 A3014 RMK AO2 T00381061 SLP214
Loading
Personal Weather Stations






























Interactive Weather Map New forecast layout! Learn more

10-Day Weather Forecast

Advertisements
Track Severe Weather on mobile